sensor_id;sensor_type;location;lat;lon;timestamp;pressure;altitude;pressure_sealevel;temperature;humidity
56334;BME280;42240;53.626;55.886;2023-03-19T00:00:27;78388.28;;;-145.10;100.00
56334;BME280;42240;53.626;55.886;2023-03-19T00:02:00;78402.13;;;-145.10;100.00
56334;BME280;42240;53.626;55.886;2023-03-19T00:03:48;78404.09;;;-145.10;100.00
56334;BME280;42240;53.626;55.886;2023-03-19T00:05:21;78400.13;;;-145.10;100.00
56334;BME280;42240;53.626;55.886;2023-03-19T00:06:54;78406.06;;;-145.10;100.00
56334;BME280;42240;53.626;55.886;2023-03-19T00:08:27;78408.06;;;-145.10;100.00
56334;BME280;42240;53.626;55.886;2023-03-19T00:10:00;78412.00;;;-145.10;100.00
56334;BME280;42240;53.626;55.886;2023-03-19T00:11:33;78414.00;;;-145.10;100.00
56334;BME280;42240;53.626;55.886;2023-03-19T00:13:06;78471.34;;;-145.10;100.00
56334;BME280;42240;53.626;55.886;2023-03-19T00:14:39;78423.88;;;-145.10;100.00
56334;BME280;42240;53.626;55.886;2023-03-19T00:16:13;78427.84;;;-145.10;100.00
56334;BME280;42240;53.626;55.886;2023-03-19T00:17:46;78423.88;;;-145.10;100.00
56334;BME280;42240;53.626;55.886;2023-03-19T00:19:20;78441.69;;;-145.10;100.00
56334;BME280;42240;53.626;55.886;2023-03-19T00:20:53;78443.66;;;-145.10;100.00
56334;BME280;42240;53.626;55.886;2023-03-19T00:22:26;78445.63;;;-145.10;100.00
56334;BME280;42240;53.626;55.886;2023-03-19T00:23:59;78427.84;;;-145.10;100.00
56334;BME280;42240;53.626;55.886;2023-03-19T00:25:33;78435.75;;;-145.10;100.00
56334;BME280;42240;53.626;55.886;2023-03-19T00:27:07;78437.72;;;-145.10;100.00
56334;BME280;42240;53.626;55.886;2023-03-19T00:28:41;78427.84;;;-145.10;100.00
56334;BME280;42240;53.626;55.886;2023-03-19T00:30:14;78427.84;;;-145.10;100.00
56334;BME280;42240;53.626;55.886;2023-03-19T00:31:48;78479.28;;;-145.10;100.00
56334;BME280;42240;53.626;55.886;2023-03-19T00:33:22;78447.63;;;-145.10;100.00
56334;BME280;42240;53.626;55.886;2023-03-19T00:34:55;78447.63;;;-145.10;100.00
56334;BME280;42240;53.626;55.886;2023-03-19T00:36:28;78453.56;;;-145.10;100.00
56334;BME280;42240;53.626;55.886;2023-03-19T00:38:02;78453.56;;;-145.10;100.00
56334;BME280;42240;53.626;55.886;2023-03-19T00:39:36;78451.56;;;-145.10;100.00
56334;BME280;42240;53.626;55.886;2023-03-19T00:41:09;78451.56;;;-145.10;100.00
56334;BME280;42240;53.626;55.886;2023-03-19T00:42:43;78445.63;;;-145.10;100.00
56334;BME280;42240;53.626;55.886;2023-03-19T00:44:16;78455.53;;;-145.10;100.00
56334;BME280;42240;53.626;55.886;2023-03-19T00:45:51;78443.66;;;-145.10;100.00
56334;BME280;42240;53.626;55.886;2023-03-19T00:47:24;78447.63;;;-145.10;100.00
56334;BME280;42240;53.626;55.886;2023-03-19T00:48:58;78469.38;;;-145.10;100.00
56334;BME280;42240;53.626;55.886;2023-03-19T00:50:31;78451.56;;;-145.10;100.00
56334;BME280;42240;53.626;55.886;2023-03-19T00:52:04;78459.50;;;-145.10;100.00
56334;BME280;42240;53.626;55.886;2023-03-19T00:53:38;78455.53;;;-145.10;100.00
56334;BME280;42240;53.626;55.886;2023-03-19T00:55:12;78453.56;;;-145.10;100.00
56334;BME280;42240;53.626;55.886;2023-03-19T00:56:45;78445.63;;;-145.10;100.00
56334;BME280;42240;53.626;55.886;2023-03-19T00:58:18;78467.41;;;-145.10;100.00
56334;BME280;42240;53.626;55.886;2023-03-19T00:59:51;78463.44;;;-145.10;100.00
56334;BME280;42240;53.626;55.886;2023-03-19T01:01:24;78467.41;;;-145.10;100.00
56334;BME280;42240;53.626;55.886;2023-03-19T01:02:58;78471.34;;;-145.10;100.00
56334;BME280;42240;53.626;55.886;2023-03-19T01:04:31;78528.72;;;-145.10;100.00
56334;BME280;42240;53.626;55.886;2023-03-19T01:06:05;78467.41;;;-145.10;100.00
56334;BME280;42240;53.626;55.886;2023-03-19T01:07:38;78475.31;;;-145.10;100.00
56334;BME280;42240;53.626;55.886;2023-03-19T01:09:12;78485.22;;;-145.10;100.00
56334;BME280;42240;53.626;55.886;2023-03-19T01:10:45;78491.16;;;-145.10;100.00
56334;BME280;42240;53.626;55.886;2023-03-19T01:12:18;78487.19;;;-145.10;100.00
56334;BME280;42240;53.626;55.886;2023-03-19T01:13:51;78475.31;;;-145.10;100.00
56334;BME280;42240;53.626;55.886;2023-03-19T01:15:25;78479.28;;;-145.10;100.00
56334;BME280;42240;53.626;55.886;2023-03-19T01:16:58;78491.16;;;-145.10;100.00
56334;BME280;42240;53.626;55.886;2023-03-19T01:18:32;78487.19;;;-145.10;100.00
56334;BME280;42240;53.626;55.886;2023-03-19T01:20:05;78467.41;;;-145.10;100.00
56334;BME280;42240;53.626;55.886;2023-03-19T01:21:44;78477.28;;;-145.10;100.00
56334;BME280;42240;53.626;55.886;2023-03-19T01:23:22;78475.31;;;-145.10;100.00
56334;BME280;42240;53.626;55.886;2023-03-19T01:24:55;78508.94;;;-145.10;100.00
56334;BME280;42240;53.626;55.886;2023-03-19T01:26:29;78461.47;;;-145.10;100.00
56334;BME280;42240;53.626;55.886;2023-03-19T01:28:15;78459.50;;;-145.10;100.00
56334;BME280;42240;53.626;55.886;2023-03-19T01:29:49;78447.63;;;-145.10;100.00
56334;BME280;42240;53.626;55.886;2023-03-19T01:31:43;78463.44;;;-145.10;100.00
56334;BME280;42240;53.626;55.886;2023-03-19T01:33:27;78459.50;;;-145.10;100.00
56334;BME280;42240;53.626;55.886;2023-03-19T01:35:06;78451.56;;;-145.10;100.00
56334;BME280;42240;53.626;55.886;2023-03-19T01:36:39;78449.59;;;-145.10;100.00
56334;BME280;42240;53.626;55.886;2023-03-19T01:38:12;78445.63;;;-145.10;100.00
56334;BME280;42240;53.626;55.886;2023-03-19T01:39:46;78447.63;;;-145.10;100.00
56334;BME280;42240;53.626;55.886;2023-03-19T01:41:19;78455.53;;;-145.10;100.00
56334;BME280;42240;53.626;55.886;2023-03-19T01:43:44;78449.59;;;-145.10;100.00
56334;BME280;42240;53.626;55.886;2023-03-19T01:45:38;78449.59;;;-145.10;100.00
56334;BME280;42240;53.626;55.886;2023-03-19T01:47:38;78439.72;;;-145.10;100.00
56334;BME280;42240;53.626;55.886;2023-03-19T01:49:17;78451.56;;;-145.10;100.00
56334;BME280;42240;53.626;55.886;2023-03-19T01:50:57;78449.59;;;-145.10;100.00
56334;BME280;42240;53.626;55.886;2023-03-19T01:52:51;78455.53;;;-145.10;100.00
56334;BME280;42240;53.626;55.886;2023-03-19T01:54:34;78495.09;;;-145.10;100.00
56334;BME280;42240;53.626;55.886;2023-03-19T01:56:23;78439.72;;;-145.10;100.00
56334;BME280;42240;53.626;55.886;2023-03-19T01:58:07;78443.66;;;-145.10;100.00
56334;BME280;42240;53.626;55.886;2023-03-19T02:00:00;78449.59;;;-145.10;100.00
56334;BME280;42240;53.626;55.886;2023-03-19T02:02:07;78439.72;;;-145.10;100.00
56334;BME280;42240;53.626;55.886;2023-03-19T02:03:42;78439.72;;;-145.10;100.00
56334;BME280;42240;53.626;55.886;2023-03-19T02:05:36;78435.75;;;-145.10;100.00
56334;BME280;42240;53.626;55.886;2023-03-19T02:07:14;78437.72;;;-145.10;100.00
56334;BME280;42240;53.626;55.886;2023-03-19T02:08:49;78433.78;;;-145.10;100.00
56334;BME280;42240;53.626;55.886;2023-03-19T02:10:24;78431.78;;;-145.10;100.00
56334;BME280;42240;53.626;55.886;2023-03-19T02:11:58;78423.88;;;-145.10;100.00
56334;BME280;42240;53.626;55.886;2023-03-19T02:13:33;78425.84;;;-145.10;100.00
56334;BME280;42240;53.626;55.886;2023-03-19T02:15:09;78427.84;;;-145.10;100.00
56334;BME280;42240;53.626;55.886;2023-03-19T02:16:43;78412.00;;;-145.10;100.00
56334;BME280;42240;53.626;55.886;2023-03-19T02:18:16;78415.97;;;-145.10;100.00
56334;BME280;42240;53.626;55.886;2023-03-19T02:20:05;78421.91;;;-145.10;100.00
56334;BME280;42240;53.626;55.886;2023-03-19T02:21:40;78425.84;;;-145.10;100.00
56334;BME280;42240;53.626;55.886;2023-03-19T02:26:34;78410.03;;;-145.10;100.00
56334;BME280;42240;53.626;55.886;2023-03-19T02:28:10;78419.94;;;-145.10;100.00
56334;BME280;42240;53.626;55.886;2023-03-19T02:29:43;78419.94;;;-145.10;100.00
56334;BME280;42240;53.626;55.886;2023-03-19T02:31:17;78414.00;;;-145.10;100.00
56334;BME280;42240;53.626;55.886;2023-03-19T02:32:50;78410.03;;;-145.10;100.00
56334;BME280;42240;53.626;55.886;2023-03-19T02:35:59;78402.13;;;-145.10;99.69
56334;BME280;42240;53.626;55.886;2023-03-19T02:37:34;78412.00;;;-145.10;100.00
56334;BME280;42240;53.626;55.886;2023-03-19T02:39:14;78412.00;;;-145.10;99.51
56334;BME280;42240;53.626;55.886;2023-03-19T02:41:03;78412.00;;;-145.10;99.33
56334;BME280;42240;53.626;55.886;2023-03-19T02:42:36;78423.88;;;-145.10;99.77
56334;BME280;42240;53.626;55.886;2023-03-19T02:44:10;78419.94;;;-145.10;99.56
56334;BME280;42240;53.626;55.886;2023-03-19T02:45:44;78417.94;;;-145.10;98.45
56334;BME280;42240;53.626;55.886;2023-03-19T02:47:17;78423.88;;;-145.10;98.08
56334;BME280;42240;53.626;55.886;2023-03-19T02:48:50;78415.97;;;-145.10;97.78
56334;BME280;42240;53.626;55.886;2023-03-19T02:50:24;78417.94;;;-145.10;97.11
56334;BME280;42240;53.626;55.886;2023-03-19T02:51:57;78419.94;;;-145.10;97.47
56334;BME280;42240;53.626;55.886;2023-03-19T02:53:30;78410.03;;;-145.10;97.42
56334;BME280;42240;53.626;55.886;2023-03-19T02:55:03;78415.97;;;-145.10;97.12
56334;BME280;42240;53.626;55.886;2023-03-19T02:56:36;78410.03;;;-145.10;97.10
56334;BME280;42240;53.626;55.886;2023-03-19T02:58:09;78410.03;;;-145.10;97.41
56334;BME280;42240;53.626;55.886;2023-03-19T02:59:44;78408.06;;;-145.10;96.14
56334;BME280;42240;53.626;55.886;2023-03-19T03:01:17;78419.94;;;-145.10;95.96
56334;BME280;42240;53.626;55.886;2023-03-19T03:02:51;78414.00;;;-145.10;96.37
56334;BME280;42240;53.626;55.886;2023-03-19T03:04:25;78412.00;;;-145.10;95.38
56334;BME280;42240;53.626;55.886;2023-03-19T03:05:59;78402.13;;;-145.10;96.05
56334;BME280;42240;53.626;55.886;2023-03-19T03:07:32;78404.09;;;-145.10;95.60
56334;BME280;42240;53.626;55.886;2023-03-19T03:09:05;78396.19;;;-145.10;95.45
56334;BME280;42240;53.626;55.886;2023-03-19T03:10:38;78400.13;;;-145.10;95.54
56334;BME280;42240;53.626;55.886;2023-03-19T03:12:11;78400.13;;;-145.10;95.11
56334;BME280;42240;53.626;55.886;2023-03-19T03:13:45;78402.13;;;-145.10;95.43
56334;BME280;42240;53.626;55.886;2023-03-19T03:15:19;78404.09;;;-145.10;95.47
56334;BME280;42240;53.626;55.886;2023-03-19T03:16:53;78408.06;;;-145.10;95.53
56334;BME280;42240;53.626;55.886;2023-03-19T03:18:26;78404.09;;;-145.10;95.65
56334;BME280;42240;53.626;55.886;2023-03-19T03:19:59;78394.22;;;-145.10;95.17
56334;BME280;42240;53.626;55.886;2023-03-19T03:21:33;78400.13;;;-145.10;95.31
56334;BME280;42240;53.626;55.886;2023-03-19T03:23:07;78392.22;;;-145.10;94.99
56334;BME280;42240;53.626;55.886;2023-03-19T03:24:40;78400.13;;;-145.10;95.15
56334;BME280;42240;53.626;55.886;2023-03-19T03:26:14;78388.28;;;-145.10;94.79
56334;BME280;42240;53.626;55.886;2023-03-19T03:27:47;78384.31;;;-145.10;95.71
56334;BME280;42240;53.626;55.886;2023-03-19T03:29:20;78392.22;;;-145.10;95.04
56334;BME280;42240;53.626;55.886;2023-03-19T03:31:00;78368.50;;;-145.10;94.76
56334;BME280;42240;53.626;55.886;2023-03-19T03:32:35;78376.41;;;-145.10;95.51
56334;BME280;42240;53.626;55.886;2023-03-19T03:34:09;78394.22;;;-145.10;95.36
56334;BME280;42240;53.626;55.886;2023-03-19T03:35:42;78392.22;;;-145.10;94.61
56334;BME280;42240;53.626;55.886;2023-03-19T03:37:15;78390.25;;;-145.10;95.35
56334;BME280;42240;53.626;55.886;2023-03-19T03:38:50;78400.13;;;-145.10;94.90
56334;BME280;42240;53.626;55.886;2023-03-19T03:40:23;78398.16;;;-145.10;95.37
56334;BME280;42240;53.626;55.886;2023-03-19T03:41:57;78396.19;;;-145.10;95.07
56334;BME280;42240;53.626;55.886;2023-03-19T03:43:31;78451.56;;;-145.10;95.12
56334;BME280;42240;53.626;55.886;2023-03-19T03:45:04;78412.00;;;-145.10;95.06
56334;BME280;42240;53.626;55.886;2023-03-19T03:46:39;78414.00;;;-145.10;94.79
56334;BME280;42240;53.626;55.886;2023-03-19T03:48:12;78419.94;;;-145.10;94.73
56334;BME280;42240;53.626;55.886;2023-03-19T03:49:46;78477.28;;;-145.10;94.98
56334;BME280;42240;53.626;55.886;2023-03-19T03:51:20;78419.94;;;-145.10;95.38
56334;BME280;42240;53.626;55.886;2023-03-19T03:52:53;78425.84;;;-145.10;94.84
56334;BME280;42240;53.626;55.886;2023-03-19T03:54:26;78423.88;;;-145.10;95.87
56334;BME280;42240;53.626;55.886;2023-03-19T03:55:59;78419.94;;;-145.10;95.09
56334;BME280;42240;53.626;55.886;2023-03-19T03:57:34;78417.94;;;-145.10;95.75
56334;BME280;42240;53.626;55.886;2023-03-19T03:59:07;78415.97;;;-145.10;95.84
56334;BME280;42240;53.626;55.886;2023-03-19T04:00:41;78431.78;;;-145.10;94.53
56334;BME280;42240;53.626;55.886;2023-03-19T04:02:13;78431.78;;;-145.10;94.91
56334;BME280;42240;53.626;55.886;2023-03-19T04:03:47;78417.94;;;-145.10;95.43
56334;BME280;42240;53.626;55.886;2023-03-19T04:05:20;78414.00;;;-145.10;95.14
56334;BME280;42240;53.626;55.886;2023-03-19T04:06:55;78421.91;;;-145.10;95.30
56334;BME280;42240;53.626;55.886;2023-03-19T04:08:40;78431.78;;;-145.10;94.89
56334;BME280;42240;53.626;55.886;2023-03-19T04:10:15;78435.75;;;-145.10;94.50
56334;BME280;42240;53.626;55.886;2023-03-19T04:11:48;78429.81;;;-145.10;94.71
56334;BME280;42240;53.626;55.886;2023-03-19T04:13:23;78427.84;;;-145.10;94.58
56334;BME280;42240;53.626;55.886;2023-03-19T04:14:56;78431.78;;;-145.10;94.78
56334;BME280;42240;53.626;55.886;2023-03-19T04:16:30;78435.75;;;-145.10;94.19
56334;BME280;42240;53.626;55.886;2023-03-19T04:18:03;78447.63;;;-145.10;93.84
56334;BME280;42240;53.626;55.886;2023-03-19T04:19:36;78437.72;;;-145.10;93.08
56334;BME280;42240;53.626;55.886;2023-03-19T04:21:10;78441.69;;;-145.10;93.12
56334;BME280;42240;53.626;55.886;2023-03-19T04:22:43;78423.88;;;-145.10;93.54
56334;BME280;42240;53.626;55.886;2023-03-19T04:24:18;78437.72;;;-145.10;92.29
56334;BME280;42240;53.626;55.886;2023-03-19T04:25:51;78455.53;;;-145.10;91.42
56334;BME280;42240;53.626;55.886;2023-03-19T04:27:25;78455.53;;;-145.10;90.38
56334;BME280;42240;53.626;55.886;2023-03-19T04:28:58;78435.75;;;-145.10;89.89
56334;BME280;42240;53.626;55.886;2023-03-19T04:30:32;78439.72;;;-145.10;89.46
56334;BME280;42240;53.626;55.886;2023-03-19T04:32:07;78447.63;;;-145.10;87.65
56334;BME280;42240;53.626;55.886;2023-03-19T04:33:40;78449.59;;;-145.10;86.47
56334;BME280;42240;53.626;55.886;2023-03-19T04:35:13;78447.63;;;-145.10;86.37
56334;BME280;42240;53.626;55.886;2023-03-19T04:36:47;78447.63;;;-145.10;85.32
56334;BME280;42240;53.626;55.886;2023-03-19T04:38:22;78437.72;;;-145.10;84.98
56334;BME280;42240;53.626;55.886;2023-03-19T04:39:55;78437.72;;;-145.10;83.60
56334;BME280;42240;53.626;55.886;2023-03-19T04:41:28;78467.41;;;-145.10;81.27
56334;BME280;42240;53.626;55.886;2023-03-19T04:43:11;78469.38;;;-145.10;78.77
56334;BME280;42240;53.626;55.886;2023-03-19T04:44:45;78471.34;;;-145.10;79.02
56334;BME280;42240;53.626;55.886;2023-03-19T04:46:20;78467.41;;;-145.10;78.56
56334;BME280;42240;53.626;55.886;2023-03-19T04:47:53;78485.22;;;-145.10;78.52
56334;BME280;42240;53.626;55.886;2023-03-19T04:49:28;78489.16;;;-145.10;76.40
56334;BME280;42240;53.626;55.886;2023-03-19T04:51:02;78479.28;;;-145.10;74.58
56334;BME280;42240;53.626;55.886;2023-03-19T04:52:37;78471.34;;;-145.10;73.55
56334;BME280;42240;53.626;55.886;2023-03-19T04:54:11;78483.22;;;-145.10;72.43
56334;BME280;42240;53.626;55.886;2023-03-19T04:55:44;78505.00;;;-145.10;69.45
56334;BME280;42240;53.626;55.886;2023-03-19T04:57:21;78503.00;;;-145.10;68.15
56334;BME280;42240;53.626;55.886;2023-03-19T04:58:56;78506.97;;;-145.10;66.95
56334;BME280;42240;53.626;55.886;2023-03-19T05:00:30;78495.09;;;-145.10;65.73
56334;BME280;42240;53.626;55.886;2023-03-19T05:02:04;78522.81;;;-145.10;64.53
56334;BME280;42240;53.626;55.886;2023-03-19T05:03:39;78512.91;;;-145.10;64.96
56334;BME280;42240;53.626;55.886;2023-03-19T05:05:12;78514.88;;;-145.10;65.37
56334;BME280;42240;53.626;55.886;2023-03-19T05:06:46;78512.91;;;-145.10;64.45
56334;BME280;42240;53.626;55.886;2023-03-19T05:08:18;78483.22;;;-145.10;64.84
56334;BME280;42240;53.626;55.886;2023-03-19T05:09:52;78479.28;;;-145.10;64.49
56334;BME280;42240;53.626;55.886;2023-03-19T05:11:26;78483.22;;;-145.10;63.80
56334;BME280;42240;53.626;55.886;2023-03-19T05:13:28;78485.22;;;-145.10;62.87
56334;BME280;42240;53.626;55.886;2023-03-19T05:15:03;78489.16;;;-145.10;63.30
56334;BME280;42240;53.626;55.886;2023-03-19T05:16:40;78473.34;;;-145.10;63.87
56334;BME280;42240;53.626;55.886;2023-03-19T05:18:13;78471.34;;;-145.10;62.94
56334;BME280;42240;53.626;55.886;2023-03-19T05:19:48;78465.44;;;-145.10;61.93
56334;BME280;42240;53.626;55.886;2023-03-19T05:21:21;78469.38;;;-145.10;62.54
56334;BME280;42240;53.626;55.886;2023-03-19T05:22:57;78459.50;;;-145.10;61.28
56334;BME280;42240;53.626;55.886;2023-03-19T05:24:41;78463.44;;;-145.10;61.04
56334;BME280;42240;53.626;55.886;2023-03-19T05:26:14;78455.53;;;-145.10;60.43
56334;BME280;42240;53.626;55.886;2023-03-19T05:28:14;78469.38;;;-145.10;60.47
56334;BME280;42240;53.626;55.886;2023-03-19T05:29:47;78485.22;;;-145.10;58.73
56334;BME280;42240;53.626;55.886;2023-03-19T05:31:30;78503.00;;;-145.10;57.30
56334;BME280;42240;53.626;55.886;2023-03-19T05:33:04;78570.28;;;-145.10;56.92
56334;BME280;42240;53.626;55.886;2023-03-19T05:34:47;78497.06;;;-145.10;55.78
56334;BME280;42240;53.626;55.886;2023-03-19T05:36:21;78489.16;;;-145.10;55.29
56334;BME280;42240;53.626;55.886;2023-03-19T05:38:16;78483.22;;;-145.10;54.27
56334;BME280;42240;53.626;55.886;2023-03-19T05:39:56;78473.34;;;-145.10;54.72
56334;BME280;42240;53.626;55.886;2023-03-19T05:41:29;78477.28;;;-145.10;54.52
56334;BME280;42240;53.626;55.886;2023-03-19T05:43:10;78455.53;;;-145.10;53.75
56334;BME280;42240;53.626;55.886;2023-03-19T05:44:50;78475.31;;;-145.10;52.35
56334;BME280;42240;53.626;55.886;2023-03-19T05:46:46;78520.81;;;-145.10;51.24
56334;BME280;42240;53.626;55.886;2023-03-19T05:48:22;78508.94;;;-145.10;50.96
56334;BME280;42240;53.626;55.886;2023-03-19T05:49:55;78514.88;;;-145.10;50.40
56334;BME280;42240;53.626;55.886;2023-03-19T05:51:29;78518.84;;;-145.10;50.48
56334;BME280;42240;53.626;55.886;2023-03-19T05:53:03;78532.69;;;-145.10;50.07
56334;BME280;42240;53.626;55.886;2023-03-19T05:54:39;78512.91;;;-145.10;49.96
56334;BME280;42240;53.626;55.886;2023-03-19T05:56:24;78505.00;;;-145.10;50.18
56334;BME280;42240;53.626;55.886;2023-03-19T05:58:20;78520.81;;;-145.10;49.49
56334;BME280;42240;53.626;55.886;2023-03-19T05:59:53;78493.13;;;-145.10;49.93
56334;BME280;42240;53.626;55.886;2023-03-19T06:01:29;78518.84;;;-145.10;48.55
56334;BME280;42240;53.626;55.886;2023-03-19T06:03:04;78499.06;;;-145.10;48.46
56334;BME280;42240;53.626;55.886;2023-03-19T06:04:46;78505.00;;;-145.10;48.20
56334;BME280;42240;53.626;55.886;2023-03-19T06:06:23;78516.88;;;-145.10;48.06
56334;BME280;42240;53.626;55.886;2023-03-19T06:07:57;78503.00;;;-145.10;48.35
56334;BME280;42240;53.626;55.886;2023-03-19T06:09:49;78526.75;;;-145.10;47.79
56334;BME280;42240;53.626;55.886;2023-03-19T06:11:23;78501.03;;;-145.10;47.96
56334;BME280;42240;53.626;55.886;2023-03-19T06:13:14;78503.00;;;-145.10;47.80
56334;BME280;42240;53.626;55.886;2023-03-19T06:14:54;78506.97;;;-145.10;47.00
56334;BME280;42240;53.626;55.886;2023-03-19T06:16:51;78473.34;;;-145.10;47.76
56334;BME280;42240;53.626;55.886;2023-03-19T06:18:24;78467.41;;;-145.10;47.79
56334;BME280;42240;53.626;55.886;2023-03-19T06:19:59;78435.75;;;-145.10;48.09
56334;BME280;42240;53.626;55.886;2023-03-19T06:21:33;78447.63;;;-145.10;47.58
56334;BME280;42240;53.626;55.886;2023-03-19T06:23:08;78465.44;;;-145.10;47.40
56334;BME280;42240;53.626;55.886;2023-03-19T06:24:41;78451.56;;;-145.10;47.51
56334;BME280;42240;53.626;55.886;2023-03-19T06:26:14;78487.19;;;-145.10;47.29
56334;BME280;42240;53.626;55.886;2023-03-19T06:27:56;78467.41;;;-145.10;46.55
56334;BME280;42240;53.626;55.886;2023-03-19T06:29:33;78453.56;;;-145.10;46.72
56334;BME280;42240;53.626;55.886;2023-03-19T06:31:19;78532.69;;;-145.10;45.52
56334;BME280;42240;53.626;55.886;2023-03-19T06:32:59;78505.00;;;-145.10;46.12
56334;BME280;42240;53.626;55.886;2023-03-19T06:34:33;78495.09;;;-145.10;46.11
56334;BME280;42240;53.626;55.886;2023-03-19T06:36:06;78501.03;;;-145.10;45.67
56334;BME280;42240;53.626;55.886;2023-03-19T06:37:39;78499.06;;;-145.10;45.93
56334;BME280;42240;53.626;55.886;2023-03-19T06:39:12;78487.19;;;-145.10;45.82
56334;BME280;42240;53.626;55.886;2023-03-19T06:40:45;78489.16;;;-145.10;45.16
56334;BME280;42240;53.626;55.886;2023-03-19T06:42:19;78489.16;;;-145.10;45.62
56334;BME280;42240;53.626;55.886;2023-03-19T06:43:53;78483.22;;;-145.10;45.15
56334;BME280;42240;53.626;55.886;2023-03-19T06:45:26;78558.41;;;-145.10;44.96
56334;BME280;42240;53.626;55.886;2023-03-19T06:46:59;78449.59;;;-145.10;45.31
56334;BME280;42240;53.626;55.886;2023-03-19T06:48:33;78503.00;;;-145.10;44.62
56334;BME280;42240;53.626;55.886;2023-03-19T06:50:08;78455.53;;;-145.10;45.02
56334;BME280;42240;53.626;55.886;2023-03-19T06:51:41;78459.50;;;-145.10;44.75
56334;BME280;42240;53.626;55.886;2023-03-19T06:53:14;78475.31;;;-145.10;44.82
56334;BME280;42240;53.626;55.886;2023-03-19T06:54:47;78447.63;;;-145.10;45.18
56334;BME280;42240;53.626;55.886;2023-03-19T06:56:21;78451.56;;;-145.10;44.84
56334;BME280;42240;53.626;55.886;2023-03-19T06:57:54;78455.53;;;-145.10;44.47
56334;BME280;42240;53.626;55.886;2023-03-19T06:59:27;78427.84;;;-145.10;44.12
56334;BME280;42240;53.626;55.886;2023-03-19T07:01:01;78417.94;;;-145.10;43.79
56334;BME280;42240;53.626;55.886;2023-03-19T07:02:34;78437.72;;;-145.10;44.13
56334;BME280;42240;53.626;55.886;2023-03-19T07:04:08;78459.50;;;-145.10;43.94
56334;BME280;42240;53.626;55.886;2023-03-19T07:05:41;78459.50;;;-145.10;43.58
56334;BME280;42240;53.626;55.886;2023-03-19T07:07:13;78447.63;;;-145.10;43.06
56334;BME280;42240;53.626;55.886;2023-03-19T07:08:47;78447.63;;;-145.10;43.51
56334;BME280;42240;53.626;55.886;2023-03-19T07:10:21;78447.63;;;-145.10;43.89
56334;BME280;42240;53.626;55.886;2023-03-19T07:11:55;78463.44;;;-145.10;43.38
56334;BME280;42240;53.626;55.886;2023-03-19T07:13:29;78473.34;;;-145.10;43.21
56334;BME280;42240;53.626;55.886;2023-03-19T07:15:05;78471.34;;;-145.10;43.58
56334;BME280;42240;53.626;55.886;2023-03-19T07:16:39;78431.78;;;-145.10;43.53
56334;BME280;42240;53.626;55.886;2023-03-19T07:18:13;78439.72;;;-145.10;43.33
56334;BME280;42240;53.626;55.886;2023-03-19T07:19:46;78437.72;;;-145.10;43.35
56334;BME280;42240;53.626;55.886;2023-03-19T07:21:19;78400.13;;;-145.10;43.08
56334;BME280;42240;53.626;55.886;2023-03-19T07:22:56;78431.78;;;-145.10;42.71
56334;BME280;42240;53.626;55.886;2023-03-19T07:24:29;78421.91;;;-145.10;43.10
56334;BME280;42240;53.626;55.886;2023-03-19T07:26:02;78425.84;;;-145.10;42.09
56334;BME280;42240;53.626;55.886;2023-03-19T07:27:35;78414.00;;;-145.10;42.68
56334;BME280;42240;53.626;55.886;2023-03-19T07:29:09;78516.88;;;-145.10;42.04
56334;BME280;42240;53.626;55.886;2023-03-19T07:30:42;78435.75;;;-145.10;42.33
56334;BME280;42240;53.626;55.886;2023-03-19T07:32:15;78435.75;;;-145.10;42.08
56334;BME280;42240;53.626;55.886;2023-03-19T07:33:48;78479.28;;;-145.10;42.08
56334;BME280;42240;53.626;55.886;2023-03-19T07:35:21;78400.13;;;-145.10;41.72
56334;BME280;42240;53.626;55.886;2023-03-19T07:36:57;78372.44;;;-145.10;42.20
56334;BME280;42240;53.626;55.886;2023-03-19T07:38:30;78368.50;;;-145.10;42.22
56334;BME280;42240;53.626;55.886;2023-03-19T07:40:04;78376.41;;;-145.10;42.33
56334;BME280;42240;53.626;55.886;2023-03-19T07:41:39;78368.50;;;-145.10;41.93
56334;BME280;42240;53.626;55.886;2023-03-19T07:43:15;78342.78;;;-145.10;41.96
56334;BME280;42240;53.626;55.886;2023-03-19T07:44:47;78328.94;;;-145.10;42.00
56334;BME280;42240;53.626;55.886;2023-03-19T07:46:20;78334.84;;;-145.10;41.64
56334;BME280;42240;53.626;55.886;2023-03-19T07:47:54;78352.66;;;-145.10;41.44
56334;BME280;42240;53.626;55.886;2023-03-19T07:49:27;78328.94;;;-145.10;41.42
56334;BME280;42240;53.626;55.886;2023-03-19T07:51:00;78326.94;;;-145.10;41.04
56334;BME280;42240;53.626;55.886;2023-03-19T07:52:33;78307.16;;;-145.10;41.44
56334;BME280;42240;53.626;55.886;2023-03-19T07:54:07;78305.19;;;-145.10;41.10
56334;BME280;42240;53.626;55.886;2023-03-19T07:55:41;78301.22;;;-145.10;41.51
56334;BME280;42240;53.626;55.886;2023-03-19T07:57:14;78295.28;;;-145.10;41.30
56334;BME280;42240;53.626;55.886;2023-03-19T07:58:48;78321.00;;;-145.10;41.66
56334;BME280;42240;53.626;55.886;2023-03-19T08:00:21;78317.06;;;-145.10;41.02
56334;BME280;42240;53.626;55.886;2023-03-19T08:01:54;78297.28;;;-145.10;41.10
56334;BME280;42240;53.626;55.886;2023-03-19T08:03:27;78275.50;;;-145.10;41.00
56334;BME280;42240;53.626;55.886;2023-03-19T08:05:00;78289.34;;;-145.10;40.88
56334;BME280;42240;53.626;55.886;2023-03-19T08:06:36;78243.84;;;-145.10;41.07
56334;BME280;42240;53.626;55.886;2023-03-19T08:08:10;78313.09;;;-145.10;40.59
56334;BME280;42240;53.626;55.886;2023-03-19T08:09:43;78315.06;;;-145.10;40.92
56334;BME280;42240;53.626;55.886;2023-03-19T08:11:16;78303.22;;;-145.10;41.13